createdAt,value
2023-02-19T00:01:39.877Z,11.20
2023-02-19T00:04:08.349Z,10.13
2023-02-19T00:06:36.265Z,11.53
2023-02-19T00:09:03.500Z,11.40
2023-02-19T00:11:32.954Z,11.07
2023-02-19T00:14:00.697Z,11.83
2023-02-19T00:16:29.069Z,11.70
2023-02-19T00:18:56.963Z,9.67
2023-02-19T00:21:24.546Z,14.47
2023-02-19T00:23:52.108Z,10.57
2023-02-19T00:26:19.589Z,13.57
2023-02-19T00:28:47.455Z,12.20
2023-02-19T00:31:18.945Z,14.27
2023-02-19T00:33:46.745Z,11.57
2023-02-19T00:36:14.636Z,11.93
2023-02-19T00:38:42.447Z,12.93
2023-02-19T00:41:19.269Z,14.23
2023-02-19T00:43:51.294Z,10.77
2023-02-19T00:46:20.353Z,10.83
2023-02-19T00:48:48.096Z,13.20
2023-02-19T00:51:15.622Z,10.70
2023-02-19T00:53:43.003Z,13.17
2023-02-19T00:56:10.545Z,12.07
2023-02-19T00:58:37.942Z,13.80
2023-02-19T01:01:06.457Z,10.93
2023-02-19T01:03:37.250Z,15.17
2023-02-19T01:06:04.972Z,12.23
2023-02-19T01:08:32.688Z,12.17
2023-02-19T01:11:00.655Z,11.73
2023-02-19T01:13:28.421Z,13.50
2023-02-19T01:16:02.887Z,14.07
2023-02-19T01:18:30.065Z,13.73
2023-02-19T01:20:57.186Z,12.90
2023-02-19T01:23:24.288Z,13.67
2023-02-19T01:25:51.395Z,11.77
2023-02-19T01:28:18.512Z,12.77
2023-02-19T01:30:45.599Z,11.53
2023-02-19T01:33:12.735Z,11.97
2023-02-19T01:35:40.022Z,11.73
2023-02-19T01:38:09.952Z,12.13
2023-02-19T01:40:37.066Z,11.73
2023-02-19T01:43:04.225Z,12.33
2023-02-19T01:45:32.258Z,11.50
2023-02-19T01:48:08.283Z,12.70
2023-02-19T01:50:38.312Z,11.17
2023-02-19T01:53:07.783Z,12.80
2023-02-19T01:55:35.541Z,11.03
2023-02-19T01:58:02.924Z,10.53
2023-02-19T02:00:30.355Z,10.87
2023-02-19T02:02:58.791Z,11.63
2023-02-19T02:05:33.395Z,10.53
2023-02-19T02:08:21.801Z,12.03
2023-02-19T02:10:49.476Z,9.80
2023-02-19T02:13:16.604Z,10.47
2023-02-19T02:15:52.368Z,9.87
2023-02-19T02:18:38.053Z,9.77
2023-02-19T02:21:16.657Z,10.90
2023-02-19T02:24:02.526Z,10.13
2023-02-19T02:26:56.136Z,11.57
2023-02-19T02:29:42.089Z,9.20
2023-02-19T02:32:14.147Z,8.53
2023-02-19T02:34:52.496Z,11.83
2023-02-19T02:40:48.563Z,8.93
2023-02-19T02:43:15.748Z,8.70
2023-02-19T02:45:43.027Z,9.00
2023-02-19T02:48:10.211Z,9.30
2023-02-19T02:50:39.328Z,8.60
2023-02-19T02:53:28.207Z,9.63
2023-02-19T02:55:55.873Z,9.13
2023-02-19T02:58:25.295Z,8.87
2023-02-19T03:01:14.235Z,9.93
2023-02-19T03:03:44.142Z,7.70
2023-02-19T03:06:12.792Z,7.97
2023-02-19T03:08:43.323Z,8.03
2023-02-19T03:11:30.036Z,7.83
2023-02-19T03:14:18.934Z,8.97
2023-02-19T03:17:06.019Z,9.30
2023-02-19T03:19:36.085Z,8.07
2023-02-19T03:22:10.183Z,7.30
2023-02-19T03:24:57.909Z,7.83
2023-02-19T03:27:27.095Z,7.97
2023-02-19T03:29:55.689Z,7.87
2023-02-19T03:32:26.410Z,7.97
2023-02-19T03:34:55.782Z,7.43
2023-02-19T03:37:25.756Z,7.83
2023-02-19T03:39:54.335Z,8.70
2023-02-19T03:42:26.295Z,8.50
2023-02-19T03:45:00.337Z,6.67
2023-02-19T03:47:43.776Z,7.33
2023-02-19T03:50:25.864Z,9.47
2023-02-19T03:53:11.510Z,8.03
2023-02-19T03:55:44.432Z,7.40
2023-02-19T03:58:14.606Z,8.80
2023-02-19T04:00:50.136Z,9.93
2023-02-19T04:03:17.209Z,8.13
2023-02-19T04:05:47.638Z,7.60
2023-02-19T04:08:19.926Z,10.30
2023-02-19T04:10:47.767Z,7.57
2023-02-19T04:13:27.198Z,7.50
2023-02-19T04:15:55.871Z,9.03
2023-02-19T04:18:25.370Z,8.77
2023-02-19T04:20:53.302Z,8.30
2023-02-19T04:23:21.951Z,6.87
2023-02-19T04:25:51.182Z,7.87
2023-02-19T04:28:18.495Z,8.07
2023-02-19T04:30:46.960Z,8.13
2023-02-19T04:33:14.125Z,10.53
2023-02-19T04:35:41.282Z,7.80
2023-02-19T04:38:08.701Z,7.13
2023-02-19T04:40:35.851Z,8.00
2023-02-19T04:43:02.967Z,6.87
2023-02-19T04:45:30.116Z,8.60
2023-02-19T04:47:58.917Z,7.03
2023-02-19T04:50:26.155Z,7.30
2023-02-19T04:52:53.297Z,8.43
2023-02-19T04:55:20.426Z,7.63
2023-02-19T04:57:47.556Z,5.83
2023-02-19T05:00:14.858Z,6.93
2023-02-19T05:02:42.167Z,6.57
2023-02-19T05:05:09.295Z,6.17
2023-02-19T05:07:36.465Z,6.00
2023-02-19T05:10:03.592Z,7.90
2023-02-19T05:12:31.240Z,8.20
2023-02-19T05:14:58.375Z,8.00
2023-02-19T05:17:25.498Z,7.33
2023-02-19T05:19:52.604Z,7.63
2023-02-19T05:22:19.742Z,7.83
2023-02-19T05:24:46.875Z,7.63
2023-02-19T05:27:14.016Z,9.20
2023-02-19T05:29:41.134Z,7.17
2023-02-19T05:32:08.331Z,9.00
2023-02-19T05:34:35.588Z,8.13
2023-02-19T05:37:02.738Z,7.47
2023-02-19T05:39:29.838Z,9.00
2023-02-19T05:41:56.937Z,7.03
2023-02-19T05:44:24.155Z,7.40
2023-02-19T05:46:51.249Z,7.90
2023-02-19T05:49:18.354Z,8.17
2023-02-19T05:51:45.519Z,9.00
2023-02-19T05:54:12.666Z,8.30
2023-02-19T05:56:40.968Z,7.83
2023-02-19T05:59:18.279Z,7.17
2023-02-19T06:01:45.750Z,7.40
2023-02-19T06:04:13.934Z,6.73
2023-02-19T06:06:41.271Z,7.37
2023-02-19T06:09:09.220Z,6.17
2023-02-19T06:11:36.452Z,9.20
2023-02-19T06:14:03.704Z,7.00
2023-02-19T06:16:32.229Z,6.10
2023-02-19T06:18:59.334Z,6.10
2023-02-19T06:21:26.486Z,6.53
2023-02-19T06:23:53.588Z,6.20
2023-02-19T06:26:22.204Z,5.63
2023-02-19T06:28:50.553Z,6.47
2023-02-19T06:31:18.231Z,6.77
2023-02-19T06:33:45.687Z,6.60
2023-02-19T06:36:17.235Z,5.97
2023-02-19T06:38:44.719Z,6.57
2023-02-19T06:41:13.187Z,7.33
2023-02-19T06:43:40.833Z,6.10
2023-02-19T06:46:08.638Z,5.50
2023-02-19T06:48:35.882Z,3.70
2023-02-19T06:51:03.171Z,6.80
2023-02-19T06:53:30.404Z,5.37
2023-02-19T06:56:01.268Z,5.77
2023-02-19T06:58:28.604Z,6.43
2023-02-19T07:00:55.976Z,4.67
2023-02-19T07:03:23.574Z,6.53
2023-02-19T07:05:50.706Z,5.60
2023-02-19T07:08:18.219Z,5.93
2023-02-19T07:10:45.927Z,6.13
2023-02-19T07:13:13.105Z,6.20
2023-02-19T07:15:40.280Z,6.73
2023-02-19T07:18:10.432Z,6.50
2023-02-19T07:20:38.097Z,5.60
2023-02-19T07:23:05.243Z,6.60
2023-02-19T07:25:32.566Z,6.07
2023-02-19T07:27:59.691Z,6.80
2023-02-19T07:30:26.915Z,6.40
2023-02-19T07:32:54.046Z,7.17
2023-02-19T07:35:21.142Z,5.70
2023-02-19T07:37:48.319Z,4.00
2023-02-19T07:40:15.500Z,5.90
2023-02-19T07:42:42.617Z,7.80
2023-02-19T07:45:09.843Z,5.93
2023-02-19T07:47:37.236Z,6.10
2023-02-19T07:50:04.373Z,5.67
2023-02-19T07:52:31.517Z,6.10
2023-02-19T07:54:58.632Z,5.77
2023-02-19T07:57:25.808Z,6.83
2023-02-19T07:59:52.999Z,7.53
2023-02-19T08:02:39.598Z,5.73
2023-02-19T08:05:07.336Z,5.50
2023-02-19T08:07:35.225Z,5.93
2023-02-19T08:10:21.375Z,6.93
2023-02-19T08:13:19.371Z,7.63
2023-02-19T08:16:07.516Z,5.27
2023-02-19T08:18:41.839Z,5.47
2023-02-19T08:21:09.255Z,4.17
2023-02-19T08:23:36.874Z,6.70
2023-02-19T08:26:04.553Z,7.13
2023-02-19T08:28:31.979Z,5.90
2023-02-19T08:31:00.862Z,6.77
2023-02-19T08:33:28.439Z,4.83
2023-02-19T08:35:55.740Z,6.77
2023-02-19T08:38:22.970Z,5.87
2023-02-19T08:40:50.135Z,7.20
2023-02-19T08:43:19.062Z,9.17
2023-02-19T08:45:47.523Z,7.00
2023-02-19T08:48:14.789Z,7.23
2023-02-19T08:50:42.156Z,6.30
2023-02-19T08:53:09.397Z,8.07
2023-02-19T08:55:38.082Z,9.10
2023-02-19T08:58:05.474Z,10.00
2023-02-19T09:00:32.634Z,6.67
2023-02-19T09:02:59.821Z,8.40
2023-02-19T09:05:26.950Z,8.33
2023-02-19T09:07:54.056Z,9.73
2023-02-19T09:10:21.263Z,5.80
2023-02-19T09:12:48.446Z,8.17
2023-02-19T09:15:15.607Z,7.33
2023-02-19T09:17:42.750Z,7.20
2023-02-19T09:20:10.891Z,5.20
2023-02-19T09:22:38.044Z,5.47
2023-02-19T09:25:05.286Z,7.60
2023-02-19T09:27:33.292Z,6.73
2023-02-19T09:30:00.513Z,6.83
2023-02-19T09:32:27.768Z,7.67
2023-02-19T09:34:54.848Z,7.83
2023-02-19T09:37:25.569Z,7.23
2023-02-19T09:39:52.682Z,6.37
2023-02-19T09:42:21.248Z,5.03
2023-02-19T09:44:49.311Z,5.47
2023-02-19T09:47:18.196Z,6.03
2023-02-19T09:49:50.094Z,6.73
2023-02-19T09:52:20.069Z,7.23
2023-02-19T09:54:47.922Z,6.63
2023-02-19T09:57:16.632Z,5.17
2023-02-19T09:59:48.835Z,7.50
2023-02-19T10:02:20.479Z,4.97
2023-02-19T10:04:48.012Z,6.27
2023-02-19T10:07:16.080Z,5.27
2023-02-19T10:09:45.656Z,5.23
2023-02-19T10:12:17.603Z,5.10
2023-02-19T10:14:47.606Z,4.57
2023-02-19T10:17:21.160Z,5.07
2023-02-19T10:19:48.270Z,8.10
2023-02-19T10:22:15.435Z,6.17
2023-02-19T10:24:43.720Z,7.07
2023-02-19T10:27:16.896Z,4.13
2023-02-19T10:29:45.358Z,6.43
2023-02-19T10:32:13.371Z,5.53
2023-02-19T10:34:40.567Z,7.03
2023-02-19T10:37:11.809Z,4.97
2023-02-19T10:39:43.672Z,10.23
2023-02-19T10:42:17.808Z,8.87
2023-02-19T10:44:45.893Z,8.17
2023-02-19T10:47:17.441Z,6.43
2023-02-19T10:49:46.089Z,10.63
2023-02-19T10:52:17.725Z,8.47
2023-02-19T10:54:46.066Z,10.90
2023-02-19T10:57:15.912Z,10.43
2023-02-19T11:00:09.484Z,7.23
2023-02-19T11:02:36.634Z,9.77
2023-02-19T11:05:14.470Z,9.33
2023-02-19T11:07:59.732Z,7.03
2023-02-19T11:10:27.664Z,8.00
2023-02-19T11:12:59.636Z,10.77
2023-02-19T11:15:34.054Z,6.07
2023-02-19T11:18:04.281Z,7.50
2023-02-19T11:20:32.036Z,9.67
2023-02-19T11:23:07.683Z,9.53
2023-02-19T11:25:35.066Z,6.70
2023-02-19T11:28:09.104Z,8.97
2023-02-19T11:30:36.615Z,8.73
2023-02-19T11:33:19.977Z,6.23
2023-02-19T11:35:48.295Z,5.07
2023-02-19T11:38:16.659Z,7.20
2023-02-19T11:40:46.596Z,9.57
2023-02-19T11:43:22.189Z,9.00
2023-02-19T11:45:52.894Z,6.80
2023-02-19T11:48:20.203Z,4.87
2023-02-19T11:50:53.394Z,6.17
2023-02-19T11:53:28.198Z,7.57
2023-02-19T11:56:13.736Z,5.13
2023-02-19T11:58:43.885Z,7.03
2023-02-19T12:01:21.095Z,5.37
2023-02-19T12:04:00.507Z,5.50
2023-02-19T12:06:27.598Z,3.77
2023-02-19T12:09:10.310Z,4.73
2023-02-19T12:11:56.213Z,5.33
2023-02-19T12:14:23.280Z,4.50
2023-02-19T12:16:59.311Z,5.03
2023-02-19T12:19:34.458Z,8.33
2023-02-19T12:22:01.635Z,5.60
2023-02-19T12:24:49.038Z,9.13
2023-02-19T12:27:16.538Z,3.33
2023-02-19T12:29:52.611Z,4.23
2023-02-19T12:32:38.339Z,3.00
2023-02-19T12:35:24.155Z,6.97
2023-02-19T12:38:01.416Z,4.23
2023-02-19T12:40:34.524Z,6.33
2023-02-19T12:43:21.074Z,7.60
2023-02-19T12:45:49.037Z,4.77
2023-02-19T12:48:28.451Z,6.80
2023-02-19T12:51:14.159Z,6.23
2023-02-19T12:53:47.068Z,8.90
2023-02-19T12:56:18.297Z,7.23
2023-02-19T12:59:05.667Z,5.77
2023-02-19T13:01:35.168Z,7.53
2023-02-19T13:04:11.161Z,10.13
2023-02-19T13:06:43.824Z,9.50
2023-02-19T13:09:33.397Z,7.43
2023-02-19T13:12:08.388Z,7.83
2023-02-19T13:14:38.576Z,8.93
2023-02-19T13:17:20.864Z,8.17
2023-02-19T13:19:49.349Z,6.50
2023-02-19T13:22:58.177Z,10.40
2023-02-19T13:25:29.646Z,8.43
2023-02-19T13:28:03.357Z,9.47
2023-02-19T13:30:38.451Z,8.70
2023-02-19T13:33:05.617Z,8.37
2023-02-19T13:35:38.850Z,9.77
2023-02-19T13:38:07.685Z,10.27
2023-02-19T13:40:36.731Z,12.03
2023-02-19T13:43:06.124Z,9.73
2023-02-19T13:45:40.808Z,7.80
2023-02-19T13:48:14.122Z,11.77
2023-02-19T13:50:41.431Z,13.53
2023-02-19T13:53:31.614Z,9.60
2023-02-19T13:55:58.749Z,9.33
2023-02-19T13:58:34.989Z,9.00
2023-02-19T14:01:06.953Z,28.77
2023-02-19T14:03:48.130Z,9.07
2023-02-19T14:06:15.334Z,9.53
2023-02-19T14:09:00.259Z,9.17
2023-02-19T14:11:42.529Z,11.03
2023-02-19T14:14:47.924Z,9.00
2023-02-19T14:17:18.078Z,12.33
2023-02-19T14:20:05.567Z,10.33
2023-02-19T14:22:56.849Z,9.03
2023-02-19T14:25:29.835Z,7.90
2023-02-19T14:28:04.991Z,6.67
2023-02-19T14:30:33.037Z,11.40
2023-02-19T14:33:10.211Z,11.00
2023-02-19T14:35:43.213Z,10.77
2023-02-19T14:38:42.892Z,7.20
2023-02-19T14:41:12.578Z,8.77
2023-02-19T14:43:40.480Z,7.70
2023-02-19T14:46:20.813Z,7.63
2023-02-19T14:48:48.792Z,8.37
2023-02-19T14:51:21.245Z,7.07
2023-02-19T14:53:48.721Z,9.57
2023-02-19T14:56:27.017Z,7.77
2023-02-19T14:59:22.150Z,9.30
2023-02-19T15:02:16.304Z,12.53
2023-02-19T15:04:43.449Z,7.43
2023-02-19T15:07:12.497Z,12.43
2023-02-19T15:09:49.146Z,9.77
2023-02-19T15:12:21.123Z,11.63
2023-02-19T15:14:49.388Z,11.07
2023-02-19T15:17:21.073Z,7.40
2023-02-19T15:19:48.433Z,10.83
2023-02-19T15:22:21.483Z,9.43
2023-02-19T15:24:48.865Z,9.53
2023-02-19T15:27:20.191Z,9.57
2023-02-19T15:29:48.164Z,10.03
2023-02-19T15:32:28.478Z,9.43
2023-02-19T15:35:03.036Z,8.37
2023-02-19T15:37:31.752Z,10.93
2023-02-19T15:40:00.400Z,10.47
2023-02-19T15:42:29.386Z,13.63
2023-02-19T15:45:02.650Z,9.27
2023-02-19T15:47:36.063Z,9.33
2023-02-19T15:50:06.630Z,10.57
2023-02-19T15:52:36.752Z,6.87
2023-02-19T15:55:35.993Z,11.90
2023-02-19T15:58:05.944Z,8.47
2023-02-19T16:00:39.233Z,10.53
2023-02-19T16:03:07.210Z,11.13
2023-02-19T16:05:39.829Z,7.70
2023-02-19T16:08:08.308Z,9.00
2023-02-19T16:10:35.654Z,8.10
2023-02-19T16:13:04.439Z,9.23
2023-02-19T16:15:33.178Z,9.13
2023-02-19T16:18:00.757Z,9.40
2023-02-19T16:20:29.829Z,8.27
2023-02-19T16:23:02.478Z,9.30
2023-02-19T16:25:31.857Z,9.53
2023-02-19T16:27:59.182Z,9.97
2023-02-19T16:30:34.666Z,8.67
2023-02-19T16:33:21.570Z,8.30
2023-02-19T16:35:49.630Z,8.30
2023-02-19T16:38:17.910Z,9.40
2023-02-19T16:40:48.027Z,9.33
2023-02-19T16:43:15.144Z,7.87
2023-02-19T16:45:42.708Z,9.53
2023-02-19T16:48:10.095Z,10.97
2023-02-19T16:50:37.453Z,11.60
2023-02-19T16:53:04.779Z,10.90
2023-02-19T16:55:35.167Z,12.13
2023-02-19T16:58:02.283Z,11.83
2023-02-19T17:00:31.127Z,7.00
2023-02-19T17:03:00.256Z,6.60
2023-02-19T17:05:28.373Z,7.87
2023-02-19T17:07:55.671Z,7.93
2023-02-19T17:10:27.324Z,6.17
2023-02-19T17:12:55.117Z,7.77
2023-02-19T17:15:23.314Z,8.00
2023-02-19T17:17:50.442Z,8.67
2023-02-19T17:20:17.555Z,7.37
2023-02-19T17:22:44.744Z,6.90
2023-02-19T17:25:11.877Z,7.03
2023-02-19T17:27:39.000Z,6.07
2023-02-19T17:30:26.472Z,7.90
2023-02-19T17:32:53.756Z,5.70
2023-02-19T17:35:20.919Z,7.73
2023-02-19T17:37:48.323Z,6.13
2023-02-19T17:40:32.224Z,6.90
2023-02-19T17:43:00.555Z,7.37
2023-02-19T17:45:27.729Z,6.40
2023-02-19T17:47:54.863Z,7.77
2023-02-19T17:50:23.380Z,9.90
2023-02-19T17:52:50.688Z,7.90
2023-02-19T17:55:20.232Z,6.87
2023-02-19T17:57:50.862Z,9.13
2023-02-19T18:00:19.467Z,7.67
2023-02-19T18:02:46.618Z,8.47
2023-02-19T18:05:14.031Z,7.83
2023-02-19T18:07:41.327Z,8.67
2023-02-19T18:10:08.722Z,7.00
2023-02-19T18:12:36.015Z,9.20
2023-02-19T18:15:03.115Z,9.27
2023-02-19T18:17:30.272Z,9.07
2023-02-19T18:19:57.426Z,7.83
2023-02-19T18:22:24.732Z,8.10
2023-02-19T18:24:53.878Z,9.70
2023-02-19T18:27:23.400Z,10.27
2023-02-19T18:29:52.017Z,9.70
2023-02-19T18:32:20.179Z,9.43
2023-02-19T18:34:54.118Z,7.83
2023-02-19T18:37:21.431Z,9.37
2023-02-19T18:39:48.583Z,9.20
2023-02-19T18:42:15.777Z,7.57
2023-02-19T18:44:44.651Z,7.63
2023-02-19T18:47:12.070Z,7.97
2023-02-19T18:49:39.568Z,11.20
2023-02-19T18:52:06.828Z,9.57
2023-02-19T18:54:34.015Z,10.03
2023-02-19T18:57:02.222Z,11.27
2023-02-19T18:59:29.442Z,8.70
2023-02-19T19:01:56.613Z,9.17
2023-02-19T19:04:24.027Z,8.63
2023-02-19T19:06:51.402Z,9.50
2023-02-19T19:09:18.536Z,8.30
2023-02-19T19:11:46.620Z,9.77
2023-02-19T19:14:13.816Z,9.13
2023-02-19T19:16:42.213Z,8.67
2023-02-19T19:19:09.438Z,8.33
2023-02-19T19:21:36.550Z,7.23
2023-02-19T19:24:03.712Z,8.07
2023-02-19T19:26:30.912Z,7.67
2023-02-19T19:28:58.149Z,8.83
2023-02-19T19:31:25.514Z,11.80
2023-02-19T19:33:52.986Z,8.63
2023-02-19T19:36:21.466Z,8.20
2023-02-19T19:38:49.045Z,8.17
2023-02-19T19:41:17.343Z,12.60
2023-02-19T19:43:44.801Z,10.23
2023-02-19T19:46:14.086Z,12.67
2023-02-19T19:48:41.261Z,10.07
2023-02-19T19:51:08.402Z,9.80
2023-02-19T19:53:35.549Z,8.70
2023-02-19T19:56:02.873Z,9.77
2023-02-19T19:58:29.982Z,8.50
2023-02-19T20:00:57.250Z,9.33
2023-02-19T20:03:24.348Z,5.97
2023-02-19T20:05:51.519Z,7.30
2023-02-19T20:08:18.662Z,7.97
2023-02-19T20:10:45.797Z,9.33
2023-02-19T20:13:16.544Z,8.50
2023-02-19T20:15:43.763Z,14.37
2023-02-19T20:18:10.883Z,11.60
2023-02-19T20:20:38.056Z,8.83
2023-02-19T20:23:05.220Z,10.40
2023-02-19T20:25:32.405Z,10.50
2023-02-19T20:27:59.547Z,10.70
2023-02-19T20:30:26.681Z,10.83
2023-02-19T20:32:53.875Z,11.93
2023-02-19T20:35:21.111Z,9.83
2023-02-19T20:37:49.407Z,14.50
2023-02-19T20:40:18.168Z,13.57
2023-02-19T20:42:45.356Z,14.33
2023-02-19T20:45:14.281Z,14.60
2023-02-19T20:47:41.475Z,15.47
2023-02-19T20:50:11.835Z,13.67
2023-02-19T20:52:38.963Z,13.90
2023-02-19T20:55:06.313Z,12.57
2023-02-19T20:57:33.479Z,10.50
2023-02-19T21:00:00.622Z,14.13
2023-02-19T21:02:29.417Z,12.43
2023-02-19T21:04:57.460Z,11.37
2023-02-19T21:07:25.064Z,14.03
2023-02-19T21:09:52.246Z,11.00
2023-02-19T21:12:20.339Z,13.10
2023-02-19T21:14:47.802Z,12.63
2023-02-19T21:17:15.448Z,10.90
2023-02-19T21:19:42.634Z,13.10
2023-02-19T21:22:09.783Z,13.87
2023-02-19T21:24:36.972Z,12.03
2023-02-19T21:27:04.139Z,13.57
2023-02-19T21:29:31.278Z,13.47
2023-02-19T21:31:58.699Z,12.90
2023-02-19T21:34:27.812Z,13.87
2023-02-19T21:36:55.647Z,13.83
2023-02-19T21:39:23.537Z,12.80
2023-02-19T21:41:51.023Z,15.20
2023-02-19T21:44:18.486Z,13.27
2023-02-19T21:46:45.677Z,14.07
2023-02-19T21:49:13.207Z,11.70
2023-02-19T21:51:41.289Z,17.10
2023-02-19T21:54:09.106Z,14.83
2023-02-19T21:56:36.944Z,13.47
2023-02-19T21:59:04.285Z,14.63
2023-02-19T22:01:32.716Z,14.33
2023-02-19T22:04:00.139Z,11.53
2023-02-19T22:06:29.267Z,12.57
2023-02-19T22:08:56.862Z,13.33
2023-02-19T22:11:24.250Z,13.97
2023-02-19T22:13:51.545Z,14.57
2023-02-19T22:16:19.334Z,13.97
2023-02-19T22:18:47.505Z,16.17
2023-02-19T22:21:14.793Z,14.60
2023-02-19T22:23:44.409Z,15.10
2023-02-19T22:26:17.349Z,12.00
2023-02-19T22:28:44.641Z,18.10
2023-02-19T22:31:11.825Z,18.03
2023-02-19T22:33:38.931Z,16.07
2023-02-19T22:36:06.370Z,15.83
2023-02-19T22:38:33.470Z,14.63
2023-02-19T22:41:00.571Z,13.43
2023-02-19T22:43:27.671Z,16.47
2023-02-19T22:45:54.883Z,17.33
2023-02-19T22:48:30.030Z,14.23
2023-02-19T22:50:58.857Z,14.03
2023-02-19T22:53:26.057Z,13.13
2023-02-19T22:55:53.234Z,16.30
2023-02-19T22:58:20.337Z,15.47
2023-02-19T23:00:47.485Z,16.73
2023-02-19T23:03:14.650Z,16.27
2023-02-19T23:05:41.757Z,18.10
2023-02-19T23:08:08.844Z,21.63
2023-02-19T23:10:35.997Z,22.47
2023-02-19T23:13:03.110Z,16.93
2023-02-19T23:15:30.220Z,20.07
2023-02-19T23:17:57.307Z,21.73
2023-02-19T23:20:24.448Z,17.60
2023-02-19T23:22:51.673Z,18.90
2023-02-19T23:25:18.794Z,22.03
2023-02-19T23:27:45.908Z,16.27
2023-02-19T23:30:13.534Z,16.60
2023-02-19T23:32:40.673Z,17.47
2023-02-19T23:35:07.874Z,20.80
2023-02-19T23:37:35.033Z,21.97
2023-02-19T23:40:02.122Z,25.13
2023-02-19T23:42:29.283Z,17.73
2023-02-19T23:44:56.397Z,22.20
2023-02-19T23:47:25.850Z,18.13
2023-02-19T23:49:52.978Z,19.03
2023-02-19T23:52:20.110Z,22.50
2023-02-19T23:54:47.281Z,17.03
2023-02-19T23:57:15.072Z,21.20
2023-02-19T23:59:42.195Z,16.50
